This is the latest recevied weather packets stored in our database for station/object WV6L-13. If no packets are shown the sender has not sent any weather packets the latest 10 day(s).
| Time | Temp. | Humidity | Pressure | Rain* | Wind** | Luminosity | Snow |
|---|---|---|---|---|---|---|---|
| 1777943699 | 20.56° C | 24% | 920.4 hPa | - | - | - | - |
| 1777943393 | 21.11° C | 23% | 920.4 hPa | - | - | - | - |
| 1777943094 | 20.56° C | 23% | 920.6 hPa | - | - | - | - |
| 1777939794 | 22.22° C | 23% | 920.4 hPa | - | - | - | - |
| 1777939494 | 22.22° C | 23% | 920.3 hPa | - | - | - | - |
| 1777934695 | 22.78° C | 26% | 920.6 hPa | - | - | - | - |
| 1777931094 | 21.11° C | 28% | 921.4 hPa | - | - | - | - |
| 1777929594 | 21.11° C | 30% | 921.7 hPa | - | - | - | - |
| 1777927494 | 21.11° C | 31% | 921.8 hPa | - | - | - | - |
| 1777923594 | 20° C | 33% | 922.2 hPa | - | - | - | - |
| 1777923294 | 20° C | 33% | 922.3 hPa | - | - | - | - |
| 1777920594 | 20° C | 33% | 922.5 hPa | - | - | - | - |
| 1777919694 | 20° C | 33% | 922.5 hPa | - | - | - | - |
| 1777919394 | 20° C | 33% | 922.7 hPa | - | - | - | - |
| 1777918194 | 20° C | 36% | 922.9 hPa | - | - | - | - |
| 1777917593 | 18.89° C | 38% | 923 hPa | - | - | - | - |
| 1777916394 | 18.33° C | 41% | 923 hPa | - | - | - | - |
| 1777916093 | 18.33° C | 41% | 923.1 hPa | - | - | - | - |
| 1777915795 | 18.33° C | 41% | 923 hPa | - | - | - | - |
| 1777915193 | 17.22° C | 42% | 923.1 hPa | - | - | - | - |
| 1777914596 | 16.67° C | 43% | 922.9 hPa | - | - | - | - |
| 1777913995 | 15.56° C | 46% | 922.8 hPa | - | - | - | - |
| 1777912794 | 17.22° C | 43% | 922.9 hPa | - | - | - | - |
| 1777911594 | 16.11° C | 45% | 922.8 hPa | - | - | - | - |
| 1777910094 | 15.56° C | 48% | 922.6 hPa | - | - | - | - |
* Rain since midnight (hover to see other rain measurements)
** Current wind speed in m/s (hover to see current wind gust speed)